Meteo Giornale » Osservazioni meteo Italia » Grazzanise

ore: 07:55 - Osservazioni Meteo Grazzanise
Lat. 41° 3' N Lon. 14° 4' E Alt. 9 metri s.l.m.

nuvoloso Europe/Rome

25 °C

Nuvoloso

Temp. 24 Ore

21 °C

35 °C

Nord

0 Km/h

Dew point 20 °C

Umidità 73 %

Visibilità  10 Km

Il sole sorge alle ore 05:58

Il sole tramonta alle ore 20:21

Data e Ora Cielo e Fenomeni T °C DP °C Um. % Pres. hPa Vis. km Vento km/h
Oggi h: 07:55 nuvoloso Nuvoloso 25 20 73 1010 10 N 0
Oggi h: 06:55 nuvoloso Nuvoloso 23 19 78 1010 10 N 0
Oggi h: 05:55 nuvoloso Nuvoloso 23 19 78 1011 10 N 0
Oggi h: 04:55 nuvoloso Nuvoloso 22 20 88 1011 10 N 0
Oggi h: 03:55 nuvoloso Nuvoloso 22 20 88 1011 10 N 0
Oggi h: 02:55 sereno Sereno 21 19 88 1011 10 N 0
Oggi h: 01:55 sereno Sereno 21 20 94 1011 10 N 0
Oggi h: 00:55 sereno Sereno 23 21 88 1011 10 N 0
Ieri h: 23:55 sereno Sereno 23 21 88 1011 10 N 0
Ieri h: 22:55 sereno Sereno 25 23 88 1010 10 N 0
Ieri h: 21:55 sereno Sereno 26 22 78 1010 10 N 0
Ieri h: 20:55 sereno Sereno 28 22 69 1010 10 N 0
Ieri h: 19:55 sereno Sereno 30 21 58 1010 10 N 0
Ieri h: 18:55 sereno Sereno 32 20 49 1010 10 N 0
Ieri h: 17:55 sereno Sereno 33 18 41 1010 10 N 0
Ieri h: 16:55 sereno Sereno 33 12 27 1010 10 N 0
Ieri h: 15:55 sereno Sereno 34 7 18 1010 10 N 0
Ieri h: 14:55 sereno Sereno 35 7 17 1010 10 N 0
Ieri h: 13:55 sereno Sereno 34 10 23 1010 10 N 0
Ieri h: 11:55 sereno Sereno 33 13 29 1011 10 N 0
Ieri h: 10:55 sereno Sereno 32 11 27 1011 10 N 0
Ieri h: 09:55 sereno Sereno 30 13 35 1011 10 N 0
Ieri h: 08:55 sereno Sereno 28 16 48 1011 10 N 0